Bridgetown, Canada
Current Conditions -  °F | °C
As of 12:00 AM on Friday 28 Nov 2014 (Local Time) from CYZX Reporting Station
Snow Showers Snow Showers  
Wind Chill: 23°   Ceiling: 2600
Heat Index: 30°   Visibility: 15mi
Dew Point: 25°   Wind: 8mph
Humidity: 80%   Direction: 360°N
Pressure: 29.98"   Gusts: NA
Location:  44.85°N, 65.15°W
Report Text: CYZX 280400Z 36007KT 15SM -SHSN OVC026 M01/M04 A2998 RMK SC8 WNDY HILL 02006KT SLP155
Loading
Personal Weather Stations






























Interactive Weather Map New forecast layout! Learn more

10-Day Weather Forecast

Advertisements
Track Severe Weather on mobile